Track Камордин Сергей

Time Latitude Longitude Accuracy (66% radius in meters) Altitude (meters) Speed (km/hour) Bearing (degrees) Battery (%) GPS flag
14:19:14 57.111661 39.325916 1.5 116.40000152588 0.95999997854233 105.76538085938 89 1 delete
14:19:04 57.111690 39.325756 1.5 117.40000152588 0.85999995470047 116.75170898438 89 1 delete
14:18:54 57.111711 39.325580 1.5 119.09999847412 0.9099999666214 100.55786132812 89 1 delete
14:18:44 57.111726 39.325389 1.5 116.90000152588 0.91999995708466 107.72644042969 89 1 delete
14:18:34 57.111728 39.325223 1.5 115.69999694824 1.0499999523163 98.41552734375 89 1 delete
14:18:18 57.111772 39.325002 7.5 111.80000305176 1.289999961853 80.875854492188 89 1 delete
14:08:08 57.116312 39.323489 1.5 112.59999847412 1.4599999189377 256.74499511719 91 1 delete
14:07:58 57.116312 39.323692 2 111.90000152588 0.8299999833107 273.18603515625 91 1 delete
14:07:41 57.116354 39.323842 11 108.80000305176 0.94999998807907 216.60095214844 91 1 delete
13:57:38 57.121122 39.329121 1.5 107.19999694824 0.8299999833107 184.62524414062 91 1 delete
13:57:33 57.121190 39.329141 1.5 108.80000305176 1.2999999523163 189.04174804688 91 1 delete
13:57:23 57.121286 39.329166 2 107 1.0599999427795 190.99182128906 91 1 delete
13:57:12 57.121386 39.329178 7.5 98 1.1499999761581 194.65576171875 91 1 delete
13:47:06 57.126771 39.334127 1 106.40000152588 1.1499999761581 174.83093261719 93 1 delete
13:46:56 57.126875 39.334100 1.5 106.59999847412 1.1000000238419 182.99377441406 93 1 delete
13:46:46 57.126969 39.334066 1.5 108.30000305176 1.1899999380112 177.59399414062 93 1 delete
13:46:36 57.127070 39.334116 1.5 109.90000152588 1.0599999427795 201.14318847656 93 1 delete
13:46:26 57.127173 39.334149 1.5 110.59999847412 0.91999995708466 174.24865722656 93 1 delete
13:46:10 57.127263 39.334097 10 91 0.93000000715256 165.90454101562 93 1 delete
13:36:05 57.133031 39.335812 1.5 109.40000152588 1.0799999237061 189.17907714844 93 1 delete
13:35:55 57.133136 39.335781 1.5 108.40000152588 1.2300000190735 167.39318847656 93 1 delete
13:35:39 57.133267 39.335617 9 100 1.5199999809265 155.654296875 93 1 delete
13:25:35 57.137390 39.340457 1.5 104.90000152588 2.3299999237061 306.69982910156 94 1 delete
13:25:30 57.137332 39.340626 1.5 105.40000152588 2.4500000476837 305.84838867188 94 1 delete
13:25:25 57.137265 39.340777 1.5 105.19999694824 2.460000038147 315.93933105469 94 1 delete
13:25:20 57.137175 39.340911 1.5 105 2.4299998283386 312.89611816406 94 1 delete
13:25:15 57.137108 39.341072 1.5 104.59999847412 2.6199998855591 309.88037109375 94 1 delete
13:25:10 57.137041 39.341247 1.5 106 2.539999961853 305.8154296875 94 1 delete
13:25:05 57.136975 39.341415 1.5 106.19999694824 2.4299998283386 310.68786621094 94 1 delete
13:25:00 57.136904 39.341571 2.5 106.30000305176 2.4299998283386 308.14453125 94 1 delete
13:24:54 57.136823 39.341796 9 106.80000305176 2.2200000286102 304.716796875 94 1 delete
13:24:49 57.136739 39.341897 10.5 92.599998474121 2.6499998569489 307.55676269531 94 1 delete
13:14:43 57.142358 39.344536 1.5 107.80000305176 1.289999961853 204.26330566406 94 1 delete
13:14:38 57.142417 39.344583 1.5 107.59999847412 1.3799999952316 199.37438964844 94 1 delete
13:14:28 57.142543 39.344620 2 107.90000152588 1.7300000190735 188.02001953125 94 1 delete
13:14:17 57.142655 39.344615 10.5 96.400001525879 1.4299999475479 194.27124023438 94 1 delete
13:04:12 57.147116 39.346633 1.5 107.5 1.1999999284744 189.21203613281 95 1 delete
13:04:07 57.147172 39.346659 1.5 107.59999847412 1.3899999856949 189.30541992188 95 1 delete
13:03:57 57.147293 39.346713 2 108.5 1.2300000190735 195.52368164062 95 1 delete
13:03:46 57.147396 39.346672 15 114.59999847412 1.3600000143051 137.88391113281 95 1 delete
12:53:41 57.150533 39.348669 2 109.30000305176 0 0 95 1 delete
12:53:21 57.150518 39.348696 3.5 112.09999847412 0.34000000357628 173.59497070312 95 1 delete
12:53:15 57.150442 39.348518 17 108 0.18999999761581 165.91003417969 95 1 delete
12:43:09 57.150396 39.348345 2 109.09999847412 0.29999998211861 80.3759765625 96 1 delete
12:42:54 57.150430 39.348216 3.5 107.69999694824 0 0 96 1 delete
12:42:43 57.150439 39.348009 8 110.30000305176 0.79999995231628 216.54602050781 96 1 delete
12:32:41 57.150669 39.348419 3 110.90000152588 0.56000000238419 198.9404296875 96 1 delete
12:32:36 57.150699 39.348430 3 110.09999847412 0 0 96 1 delete
12:32:16 57.150652 39.348599 1 111.40000152588 0.72999995946884 290.59936523438 96 1 delete
12:32:06 57.150617 39.348731 1 111.30000305176 1.25 279.47570800781 96 1 delete